Hamilton, Kentucky
Current Conditions -  °F | °C
As of 6:52 AM on Thursday 27 Nov 2014 (Local Time) from KCVG Reporting Station
Overcast Overcast  
Wind Chill: 21°   Ceiling: 2800
Heat Index: 29°   Visibility: 8mi
Dew Point: 21°   Wind: 8mph
Humidity: 72%   Direction: 300°WNW
Pressure: 30.17"   Gusts: NA
Location:  38.9221°N, 84.7397°W
Report Text: KCVG 271152Z 30007KT 8SM OVC028 M02/M06 A3017 RMK AO2 SLP223 931000 60000 T10171061 11017 21022 53024
Loading
Personal Weather Stations






























Interactive Weather Map New forecast layout! Learn more

10-Day Weather Forecast

Advertisements
Track Severe Weather on mobile